createdAt,value
2023-04-03T00:02:50.924Z,2.72
2023-04-03T00:07:53.284Z,2.67
2023-04-03T00:12:55.249Z,2.77
2023-04-03T00:17:57.036Z,2.75
2023-04-03T00:22:59.039Z,2.93
2023-04-03T00:28:01.015Z,2.70
2023-04-03T00:33:03.159Z,2.77
2023-04-03T00:38:05.497Z,2.80
2023-04-03T00:43:22.342Z,2.97
2023-04-03T00:48:30.384Z,2.50
2023-04-03T00:53:38.189Z,2.65
2023-04-03T00:58:49.896Z,2.60
2023-04-03T01:03:52.245Z,2.70
2023-04-03T01:08:55.778Z,2.80
2023-04-03T01:13:57.729Z,3.40
2023-04-03T01:19:03.809Z,3.17
2023-04-03T01:24:32.639Z,2.90
2023-04-03T01:29:34.367Z,3.13
2023-04-03T01:34:36.134Z,2.90
2023-04-03T01:39:38.346Z,2.92
2023-04-03T01:44:40.589Z,2.92
2023-04-03T01:49:42.476Z,2.70
2023-04-03T01:54:44.586Z,2.70
2023-04-03T01:59:46.459Z,2.88
2023-04-03T02:04:48.307Z,3.17
2023-04-03T02:09:50.208Z,2.92
2023-04-03T02:14:52.187Z,3.20
2023-04-03T02:19:53.856Z,3.20
2023-04-03T02:24:55.620Z,3.05
2023-04-03T02:29:57.333Z,3.28
2023-04-03T02:34:59.176Z,3.20
2023-04-03T02:40:01.533Z,3.28
2023-04-03T02:45:04.873Z,3.45
2023-04-03T02:50:06.825Z,3.15
2023-04-03T02:55:09.044Z,2.92
2023-04-03T03:00:11.460Z,3.13
2023-04-03T03:05:13.558Z,3.08
2023-04-03T03:10:15.561Z,3.30
2023-04-03T03:15:18.247Z,3.50
2023-04-03T03:20:20.334Z,3.70
2023-04-03T03:25:22.085Z,3.43
2023-04-03T03:30:23.886Z,3.85
2023-04-03T03:35:25.673Z,3.83
2023-04-03T03:40:27.633Z,3.53
2023-04-03T03:45:29.608Z,3.60
2023-04-03T03:50:32.430Z,3.65
2023-04-03T03:55:34.315Z,3.70
2023-04-03T04:00:36.969Z,3.78
2023-04-03T04:05:39.384Z,3.85
2023-04-03T04:10:41.679Z,3.67
2023-04-03T04:15:44.615Z,3.60
2023-04-03T04:20:47.174Z,4.00
2023-04-03T04:25:51.557Z,3.95
2023-04-03T04:30:54.187Z,3.50
2023-04-03T04:35:57.995Z,3.80
2023-04-03T04:41:00.802Z,3.72
2023-04-03T04:46:11.404Z,4.30
2023-04-03T04:51:18.367Z,4.00
2023-04-03T04:56:20.532Z,4.10
2023-04-03T05:01:23.023Z,4.18
2023-04-03T05:06:37.294Z,3.80
2023-04-03T05:11:43.956Z,4.07
2023-04-03T05:16:50.231Z,3.83
2023-04-03T05:21:53.796Z,3.85
2023-04-03T05:26:55.899Z,4.15
2023-04-03T05:31:58.218Z,3.70
2023-04-03T05:37:01.436Z,4.28
2023-04-03T05:47:06.191Z,3.83
2023-04-03T05:52:23.478Z,3.60
2023-04-03T05:57:26.304Z,3.70
2023-04-03T06:02:28.303Z,3.87
2023-04-03T06:07:30.297Z,3.63
2023-04-03T06:12:32.156Z,4.10
2023-04-03T06:17:34.030Z,3.73
2023-04-03T06:22:36.357Z,3.67
2023-04-03T06:27:38.234Z,4.38
2023-04-03T06:32:40.279Z,3.57
2023-04-03T06:37:41.942Z,3.67
2023-04-03T06:42:43.944Z,4.07
2023-04-03T06:47:47.809Z,3.60
2023-04-03T06:52:49.707Z,3.83
2023-04-03T06:57:51.713Z,3.90
2023-04-03T07:02:53.591Z,3.90
2023-04-03T07:07:55.441Z,4.17
2023-04-03T07:12:57.157Z,3.70
2023-04-03T07:17:59.309Z,4.20
2023-04-03T07:23:04.198Z,4.15
2023-04-03T07:28:06.170Z,3.85
2023-04-03T07:33:07.993Z,4.03
2023-04-03T07:38:10.840Z,3.93
2023-04-03T07:48:14.425Z,4.55
2023-04-03T07:53:16.492Z,4.53
2023-04-03T07:58:19.325Z,4.30
2023-04-03T08:08:23.922Z,4.63
2023-04-03T08:13:25.645Z,3.92
2023-04-03T08:18:27.776Z,4.43
2023-04-03T08:23:29.575Z,4.55
2023-04-03T08:28:31.293Z,5.03
2023-04-03T08:38:38.247Z,4.72
2023-04-03T08:43:53.248Z,4.35
2023-04-03T08:48:55.890Z,4.30
2023-04-03T08:54:05.600Z,4.28
2023-04-03T08:59:25.771Z,4.15
2023-04-03T09:04:28.884Z,3.72
2023-04-03T09:09:39.553Z,3.58
2023-04-03T09:15:07.087Z,3.50
2023-04-03T09:20:18.977Z,3.53
2023-04-03T09:25:38.265Z,3.58
2023-04-03T09:30:40.233Z,3.90
2023-04-03T09:35:48.130Z,3.63
2023-04-03T09:41:18.064Z,3.60
2023-04-03T09:46:40.613Z,3.53
2023-04-03T09:51:42.424Z,2.90
2023-04-03T09:56:51.993Z,3.10
2023-04-03T10:02:04.277Z,2.67
2023-04-03T10:07:30.356Z,3.33
2023-04-03T10:12:32.081Z,2.45
2023-04-03T10:18:06.373Z,2.50
2023-04-03T10:23:41.496Z,2.60
2023-04-03T10:28:54.925Z,2.40
2023-04-03T10:34:40.678Z,2.28
2023-04-03T10:39:59.934Z,2.78
2023-04-03T10:45:25.578Z,2.30
2023-04-03T10:50:40.208Z,2.10
2023-04-03T10:56:00.221Z,2.30
2023-04-03T11:01:10.164Z,2.25
2023-04-03T11:06:15.779Z,2.45
2023-04-03T11:11:22.634Z,2.13
2023-04-03T11:16:29.542Z,2.13
2023-04-03T11:21:48.206Z,1.75
2023-04-03T11:26:52.420Z,2.22
2023-04-03T11:32:06.604Z,1.67
2023-04-03T11:37:18.617Z,1.80
2023-04-03T11:42:20.783Z,1.60
2023-04-03T11:48:04.859Z,1.73
2023-04-03T11:53:14.835Z,1.77
2023-04-03T11:58:21.234Z,1.60
2023-04-03T12:03:29.791Z,1.70
2023-04-03T12:08:34.716Z,1.88
2023-04-03T12:13:37.271Z,1.88
2023-04-03T12:18:54.686Z,1.60
2023-04-03T12:24:04.193Z,1.30
2023-04-03T12:29:37.857Z,1.45
2023-04-03T12:34:57.389Z,1.30
2023-04-03T12:40:29.178Z,1.48
2023-04-03T12:45:43.906Z,1.48
2023-04-03T12:50:48.437Z,1.60
2023-04-03T12:55:55.463Z,1.58
2023-04-03T13:01:10.880Z,1.50
2023-04-03T13:06:19.920Z,1.73
2023-04-03T13:11:23.430Z,1.50
2023-04-03T13:16:25.860Z,1.58
2023-04-03T13:21:30.526Z,1.30
2023-04-03T13:26:34.198Z,1.40
2023-04-03T13:31:38.027Z,2.05
2023-04-03T13:36:44.958Z,1.50
2023-04-03T13:41:49.638Z,1.67
2023-04-03T13:47:01.805Z,1.77
2023-04-03T13:52:24.374Z,1.55
2023-04-03T13:57:26.678Z,2.00
2023-04-03T14:02:34.302Z,1.70
2023-04-03T14:07:36.344Z,1.92
2023-04-03T14:12:41.300Z,1.63
2023-04-03T14:17:43.697Z,1.90
2023-04-03T14:22:45.653Z,1.75
2023-04-03T14:27:49.964Z,1.60
2023-04-03T14:32:52.895Z,1.90
2023-04-03T14:37:55.895Z,1.50
2023-04-03T14:48:00.396Z,2.40
2023-04-03T14:53:02.535Z,1.80
2023-04-03T14:58:04.242Z,1.70
2023-04-03T15:03:06.193Z,1.50
2023-04-03T15:08:18.920Z,1.97
2023-04-03T15:13:21.446Z,1.85
2023-04-03T15:18:27.943Z,1.80
2023-04-03T15:23:30.962Z,1.98
2023-04-03T15:28:41.608Z,1.70
2023-04-03T15:33:43.415Z,1.80
2023-04-03T15:38:45.280Z,1.77
2023-04-03T15:43:47.008Z,1.63
2023-04-03T15:48:50.525Z,1.70
2023-04-03T15:53:52.214Z,1.80
2023-04-03T15:58:54.179Z,2.10
2023-04-03T16:03:55.936Z,1.60
2023-04-03T16:08:58.917Z,1.58
2023-04-03T16:14:00.722Z,1.60
2023-04-03T16:19:02.435Z,1.95
2023-04-03T16:24:04.414Z,1.83
2023-04-03T16:29:06.180Z,1.90
2023-04-03T16:34:07.865Z,1.60
2023-04-03T16:39:10.870Z,1.90
2023-04-03T16:49:14.533Z,1.67
2023-04-03T16:54:16.241Z,1.60
2023-04-03T16:59:18.207Z,1.95
2023-04-03T17:04:20.488Z,1.65
2023-04-03T17:09:23.643Z,1.80
2023-04-03T17:14:25.400Z,1.67
2023-04-03T17:19:28.798Z,1.80
2023-04-03T17:24:30.749Z,2.08
2023-04-03T17:29:32.427Z,1.95
2023-04-03T17:34:35.971Z,3.73
2023-04-03T17:39:37.649Z,2.65
2023-04-03T17:44:39.755Z,1.95
2023-04-03T17:49:41.594Z,2.07
2023-04-03T17:54:43.377Z,1.90
2023-04-03T17:59:45.416Z,1.83
2023-04-03T18:04:47.136Z,2.10
2023-04-03T18:09:50.878Z,2.10
2023-04-03T18:14:52.973Z,2.60
2023-04-03T18:19:55.166Z,2.28
2023-04-03T18:24:58.203Z,2.50
2023-04-03T18:30:02.972Z,2.20
2023-04-03T18:35:05.821Z,2.03
2023-04-03T18:45:11.904Z,3.30
2023-04-03T18:50:13.939Z,3.30
2023-04-03T18:55:18.853Z,3.20
2023-04-03T19:00:20.704Z,3.28
2023-04-03T19:05:23.903Z,2.88
2023-04-03T19:10:27.341Z,2.70
2023-04-03T19:15:29.365Z,3.10
2023-04-03T19:20:34.983Z,3.43
2023-04-03T19:25:38.124Z,2.85
2023-04-03T19:30:40.924Z,2.63
2023-04-03T19:35:43.002Z,2.25
2023-04-03T19:40:45.657Z,2.20
2023-04-03T19:45:48.160Z,2.20
2023-04-03T19:50:50.364Z,2.30
2023-04-03T19:55:52.542Z,2.42
2023-04-03T20:00:55.370Z,2.70
2023-04-03T20:05:58.267Z,2.58
2023-04-03T20:11:00.693Z,2.40
2023-04-03T20:16:04.731Z,2.03
2023-04-03T20:21:07.755Z,2.60
2023-04-03T20:26:13.182Z,2.38
2023-04-03T20:31:18.488Z,2.15
2023-04-03T20:36:21.781Z,2.70
2023-04-03T20:41:23.801Z,2.47
2023-04-03T20:46:38.289Z,2.75
2023-04-03T20:51:44.321Z,2.55
2023-04-03T20:56:49.559Z,2.50
2023-04-03T21:01:51.336Z,2.40
2023-04-03T21:07:31.025Z,2.80
2023-04-03T21:13:10.139Z,2.67
2023-04-03T21:18:12.399Z,3.05
2023-04-03T21:23:14.463Z,2.53
2023-04-03T21:28:18.434Z,3.10
2023-04-03T21:33:20.472Z,2.60
2023-04-03T21:38:22.237Z,2.80
2023-04-03T21:43:24.815Z,2.67
2023-04-03T21:48:30.919Z,2.60
2023-04-03T21:53:36.054Z,2.90
2023-04-03T21:58:37.850Z,2.65
2023-04-03T22:03:41.416Z,2.63
2023-04-03T22:08:43.786Z,2.65
2023-04-03T22:13:45.751Z,2.72
2023-04-03T22:18:47.444Z,3.50
2023-04-03T22:23:49.278Z,3.13
2023-04-03T22:28:51.405Z,3.25
2023-04-03T22:33:53.118Z,2.80
2023-04-03T22:38:55.178Z,2.90
2023-04-03T22:43:57.180Z,3.23
2023-04-03T22:48:58.889Z,3.10
2023-04-03T22:54:00.576Z,3.20
2023-04-03T22:59:02.361Z,3.55
2023-04-03T23:04:04.373Z,3.13
2023-04-03T23:09:06.109Z,3.40
2023-04-03T23:14:07.851Z,3.57
2023-04-03T23:19:09.686Z,2.87
2023-04-03T23:24:11.662Z,3.53
2023-04-03T23:29:13.521Z,2.97
2023-04-03T23:34:15.337Z,3.45
2023-04-03T23:39:19.808Z,3.47
2023-04-03T23:44:21.786Z,2.80
2023-04-03T23:49:23.642Z,3.17
2023-04-03T23:54:25.453Z,3.00
2023-04-03T23:59:28.063Z,3.00
